<?xml version="1.0" encoding="UTF-8" standalone="no" ?>
<gpx xmlns="http://www.topografix.com/GPX/1/1" xmlns:xsi="http://www.w3.org/2001/XMLSchema-instance" xsi:schemaLocation="http://www.topografix.com/GPX/1/1 http://www.topografix.com/GPX/1/1/gpx.xsd" version="1.1" creator="VisuGPX - https://www.visugpx.com">
  <metadata>
    <name>tour du stade</name>
    <desc><![CDATA[tour du stade]]></desc>
  </metadata>
  <wpt lat="48.72023" lon="2.09386">
    <ele>162.7</ele>
    <name><![CDATA[Start]]></name>
    <desc><![CDATA[2014-01-12 08:25:51]]></desc>
  </wpt>
  <wpt lat="48.72025" lon="2.09387">
    <ele>162.8</ele>
    <name><![CDATA[Lap 1]]></name>
    <desc><![CDATA[0.81km, 3:20, 14.6kph]]></desc>
  </wpt>
  <trk>
    <name><![CDATA[2014-01-12-08-25-51]]></name>
    <desc><![CDATA[3:20 - 0.8km]]></desc>
    <trkseg>
      <trkpt lat="48.72023" lon="2.09386">
        <ele>164.75</ele>
        <time>2014-01-12T08:25:52Z</time>
      </trkpt>
      <trkpt lat="48.72022" lon="2.09377">
        <ele>164.748</ele>
        <time>2014-01-12T08:25:54Z</time>
      </trkpt>
      <trkpt lat="48.72017" lon="2.09351">
        <ele>163.941</ele>
        <time>2014-01-12T08:25:59Z</time>
      </trkpt>
      <trkpt lat="48.72015" lon="2.09337">
        <ele>164.355</ele>
        <time>2014-01-12T08:26:01Z</time>
      </trkpt>
      <trkpt lat="48.72001" lon="2.09301">
        <ele>164.037</ele>
        <time>2014-01-12T08:26:08Z</time>
      </trkpt>
      <trkpt lat="48.71987" lon="2.09296">
        <ele>163.644</ele>
        <time>2014-01-12T08:26:12Z</time>
      </trkpt>
      <trkpt lat="48.71943" lon="2.09315">
        <ele>162.525</ele>
        <time>2014-01-12T08:26:23Z</time>
      </trkpt>
      <trkpt lat="48.71935" lon="2.09298">
        <ele>162.432</ele>
        <time>2014-01-12T08:26:27Z</time>
      </trkpt>
      <trkpt lat="48.71929" lon="2.09259">
        <ele>162.007</ele>
        <time>2014-01-12T08:26:33Z</time>
      </trkpt>
      <trkpt lat="48.71923" lon="2.09224">
        <ele>161.457</ele>
        <time>2014-01-12T08:26:39Z</time>
      </trkpt>
      <trkpt lat="48.71922" lon="2.09219">
        <ele>161.332</ele>
        <time>2014-01-12T08:26:40Z</time>
      </trkpt>
      <trkpt lat="48.71913" lon="2.09218">
        <ele>160.893</ele>
        <time>2014-01-12T08:26:44Z</time>
      </trkpt>
      <trkpt lat="48.7191" lon="2.09222">
        <ele>160.883</ele>
        <time>2014-01-12T08:26:45Z</time>
      </trkpt>
      <trkpt lat="48.71897" lon="2.09263">
        <ele>161.018</ele>
        <time>2014-01-12T08:26:52Z</time>
      </trkpt>
      <trkpt lat="48.71885" lon="2.09276">
        <ele>160.728</ele>
        <time>2014-01-12T08:26:56Z</time>
      </trkpt>
      <trkpt lat="48.71876" lon="2.09307">
        <ele>160.596</ele>
        <time>2014-01-12T08:27:01Z</time>
      </trkpt>
      <trkpt lat="48.71866" lon="2.09354">
        <ele>160.731</ele>
        <time>2014-01-12T08:27:08Z</time>
      </trkpt>
      <trkpt lat="48.71864" lon="2.09367">
        <ele>160.778</ele>
        <time>2014-01-12T08:27:10Z</time>
      </trkpt>
      <trkpt lat="48.71857" lon="2.09386">
        <ele>160.897</ele>
        <time>2014-01-12T08:27:14Z</time>
      </trkpt>
      <trkpt lat="48.71849" lon="2.09406">
        <ele>161.069</ele>
        <time>2014-01-12T08:27:18Z</time>
      </trkpt>
      <trkpt lat="48.71839" lon="2.09446">
        <ele>160.917</ele>
        <time>2014-01-12T08:27:25Z</time>
      </trkpt>
      <trkpt lat="48.71826" lon="2.09469">
        <ele>160.444</ele>
        <time>2014-01-12T08:27:31Z</time>
      </trkpt>
      <trkpt lat="48.71809" lon="2.09491">
        <ele>160.047</ele>
        <time>2014-01-12T08:27:38Z</time>
      </trkpt>
      <trkpt lat="48.71801" lon="2.09512">
        <ele>159.775</ele>
        <time>2014-01-12T08:27:44Z</time>
      </trkpt>
      <trkpt lat="48.71795" lon="2.09518">
        <ele>159.678</ele>
        <time>2014-01-12T08:27:49Z</time>
      </trkpt>
      <trkpt lat="48.71802" lon="2.09522">
        <ele>159.897</ele>
        <time>2014-01-12T08:27:53Z</time>
      </trkpt>
      <trkpt lat="48.71807" lon="2.09521">
        <ele>160.136</ele>
        <time>2014-01-12T08:27:55Z</time>
      </trkpt>
      <trkpt lat="48.71822" lon="2.09531">
        <ele>160.778</ele>
        <time>2014-01-12T08:28:01Z</time>
      </trkpt>
      <trkpt lat="48.71835" lon="2.09543">
        <ele>161.041</ele>
        <time>2014-01-12T08:28:05Z</time>
      </trkpt>
      <trkpt lat="48.71857" lon="2.09565">
        <ele>161.673</ele>
        <time>2014-01-12T08:28:12Z</time>
      </trkpt>
      <trkpt lat="48.71871" lon="2.09558">
        <ele>161.866</ele>
        <time>2014-01-12T08:28:16Z</time>
      </trkpt>
      <trkpt lat="48.71874" lon="2.09554">
        <ele>161.878</ele>
        <time>2014-01-12T08:28:17Z</time>
      </trkpt>
      <trkpt lat="48.71878" lon="2.09544">
        <ele>161.859</ele>
        <time>2014-01-12T08:28:19Z</time>
      </trkpt>
      <trkpt lat="48.71907" lon="2.09512">
        <ele>162.055</ele>
        <time>2014-01-12T08:28:27Z</time>
      </trkpt>
      <trkpt lat="48.71926" lon="2.09482">
        <ele>162.65</ele>
        <time>2014-01-12T08:28:34Z</time>
      </trkpt>
      <trkpt lat="48.71945" lon="2.09455">
        <ele>163.142</ele>
        <time>2014-01-12T08:28:39Z</time>
      </trkpt>
      <trkpt lat="48.71967" lon="2.09419">
        <ele>163.56</ele>
        <time>2014-01-12T08:28:48Z</time>
      </trkpt>
      <trkpt lat="48.71982" lon="2.09405">
        <ele>163.7</ele>
        <time>2014-01-12T08:28:53Z</time>
      </trkpt>
      <trkpt lat="48.72013" lon="2.09392">
        <ele>164.242</ele>
        <time>2014-01-12T08:29:01Z</time>
      </trkpt>
      <trkpt lat="48.7202" lon="2.09385">
        <ele>164.464</ele>
        <time>2014-01-12T08:29:05Z</time>
      </trkpt>
      <trkpt lat="48.72025" lon="2.09387">
        <ele>164.643</ele>
        <time>2014-01-12T08:29:09Z</time>
      </trkpt>
    </trkseg>
  </trk>
</gpx>